createdAt,value
2019-03-30T00:01:04.709Z,32.08
2019-03-30T00:03:35.370Z,32.60
2019-03-30T00:06:06.149Z,31.50
2019-03-30T00:08:36.970Z,30.93
2019-03-30T00:11:07.826Z,37.10
2019-03-30T00:13:38.509Z,29.53
2019-03-30T00:16:09.272Z,31.27
2019-03-30T00:18:41.553Z,29.73
2019-03-30T00:21:12.465Z,35.23
2019-03-30T00:23:44.786Z,29.47
2019-03-30T00:26:15.572Z,33.87
2019-03-30T00:28:47.200Z,33.88
2019-03-30T00:31:18.865Z,32.80
2019-03-30T00:33:51.201Z,28.13
2019-03-30T00:36:22.047Z,31.87
2019-03-30T00:38:52.941Z,29.85
2019-03-30T00:41:23.770Z,29.27
2019-03-30T00:43:56.160Z,30.87
2019-03-30T00:46:27.363Z,31.62
2019-03-30T00:48:58.063Z,28.80
2019-03-30T00:51:28.835Z,31.57
2019-03-30T00:54:00.328Z,31.63
2019-03-30T00:56:31.099Z,28.43
2019-03-30T00:59:02.666Z,30.90
2019-03-30T01:01:33.502Z,28.50
2019-03-30T01:04:04.266Z,30.50
2019-03-30T01:06:35.930Z,30.33
2019-03-30T01:09:09.020Z,28.03
2019-03-30T01:11:39.866Z,28.43
2019-03-30T01:14:10.546Z,30.87
2019-03-30T01:16:41.365Z,27.90
2019-03-30T01:19:12.102Z,28.30
2019-03-30T01:21:42.866Z,29.57
2019-03-30T01:24:13.631Z,33.30
2019-03-30T01:26:44.329Z,33.07
2019-03-30T01:29:16.294Z,29.40
2019-03-30T01:31:47.226Z,29.17
2019-03-30T01:34:19.024Z,29.25
2019-03-30T01:36:49.729Z,27.80
2019-03-30T01:39:20.687Z,27.77
2019-03-30T01:41:51.386Z,30.57
2019-03-30T01:44:22.106Z,29.73
2019-03-30T01:46:52.800Z,27.33
2019-03-30T01:49:24.312Z,28.83
2019-03-30T01:51:55.048Z,30.52
2019-03-30T01:54:25.879Z,27.58
2019-03-30T01:56:56.644Z,24.10
2019-03-30T01:59:27.422Z,27.87
2019-03-30T02:01:59.050Z,25.90
2019-03-30T02:04:29.888Z,28.53
2019-03-30T02:07:00.681Z,28.98
2019-03-30T02:09:31.452Z,25.23
2019-03-30T02:12:02.367Z,29.53
2019-03-30T02:14:33.120Z,27.02
2019-03-30T02:17:03.876Z,30.08
2019-03-30T02:19:34.660Z,26.03
2019-03-30T02:22:06.981Z,31.17
2019-03-30T02:24:37.770Z,28.50
2019-03-30T02:27:08.529Z,30.50
2019-03-30T02:29:39.203Z,26.10
2019-03-30T02:32:10.131Z,31.83
2019-03-30T02:34:40.908Z,29.00
2019-03-30T02:37:13.305Z,28.33
2019-03-30T02:39:45.593Z,25.17
2019-03-30T02:42:16.396Z,26.33
2019-03-30T02:44:47.113Z,25.73
2019-03-30T02:47:17.794Z,26.40
2019-03-30T02:49:48.578Z,28.90
2019-03-30T02:52:19.299Z,26.83
2019-03-30T02:54:50.029Z,26.37
2019-03-30T02:57:21.544Z,28.92
2019-03-30T02:59:52.241Z,27.93
2019-03-30T03:02:47.727Z,27.93
2019-03-30T03:05:45.037Z,28.60
2019-03-30T03:08:42.234Z,32.10
2019-03-30T03:11:40.504Z,31.50
2019-03-30T03:14:36.542Z,30.80
2019-03-30T03:17:33.679Z,29.23
2019-03-30T03:20:29.703Z,28.15
2019-03-30T03:23:26.257Z,32.33
2019-03-30T03:26:22.473Z,31.50
2019-03-30T03:29:18.823Z,29.83
2019-03-30T03:32:15.469Z,30.73
2019-03-30T03:35:12.423Z,32.30
2019-03-30T03:38:10.411Z,32.03
2019-03-30T03:41:06.748Z,34.47
2019-03-30T03:44:04.840Z,28.83
2019-03-30T03:47:00.891Z,32.13
2019-03-30T03:49:58.150Z,30.33
2019-03-30T03:52:53.424Z,33.93
2019-03-30T03:55:50.029Z,35.33
2019-03-30T03:58:45.674Z,33.23
2019-03-30T04:01:42.626Z,38.97
2019-03-30T04:04:40.965Z,35.97
2019-03-30T04:07:38.109Z,30.93
2019-03-30T04:10:35.231Z,40.07
2019-03-30T04:13:31.254Z,30.90
2019-03-30T04:16:29.028Z,33.33
2019-03-30T04:19:25.177Z,35.40
2019-03-30T04:22:21.643Z,36.63
2019-03-30T04:25:20.401Z,34.73
2019-03-30T04:28:16.486Z,33.88
2019-03-30T04:31:14.354Z,30.23
2019-03-30T04:34:11.406Z,29.47
2019-03-30T04:37:09.629Z,33.57
2019-03-30T04:40:06.895Z,35.57
2019-03-30T04:43:04.051Z,33.93
2019-03-30T04:46:02.107Z,30.50
2019-03-30T04:48:58.439Z,33.03
2019-03-30T04:51:57.700Z,29.85
2019-03-30T04:54:59.656Z,28.50
2019-03-30T04:57:57.714Z,32.63
2019-03-30T05:00:54.157Z,31.90
2019-03-30T05:03:51.052Z,32.40
2019-03-30T05:06:49.180Z,32.63
2019-03-30T05:09:45.077Z,30.52
2019-03-30T05:12:42.504Z,35.63
2019-03-30T05:15:39.129Z,35.10
2019-03-30T05:18:36.309Z,33.20
2019-03-30T05:21:32.436Z,38.23
2019-03-30T05:24:30.766Z,30.70
2019-03-30T05:27:27.861Z,36.23
2019-03-30T05:30:24.931Z,36.83
2019-03-30T05:33:22.370Z,35.00
2019-03-30T05:36:19.428Z,34.67
2019-03-30T05:39:17.751Z,36.07
2019-03-30T05:42:16.002Z,33.23
2019-03-30T05:45:15.419Z,33.07
2019-03-30T05:48:12.534Z,34.13
2019-03-30T05:51:08.830Z,34.70
2019-03-30T05:54:05.016Z,33.47
2019-03-30T05:57:03.201Z,34.53
2019-03-30T06:00:00.299Z,40.60
2019-03-30T06:02:57.577Z,30.75
2019-03-30T06:05:56.544Z,33.10
2019-03-30T06:08:53.638Z,33.23
2019-03-30T06:11:49.528Z,30.50
2019-03-30T06:14:46.567Z,37.33
2019-03-30T06:17:42.641Z,31.90
2019-03-30T06:20:39.754Z,37.40
2019-03-30T06:23:35.622Z,41.03
2019-03-30T06:26:33.739Z,32.50
2019-03-30T06:29:30.639Z,37.60
2019-03-30T06:32:26.257Z,36.97
2019-03-30T06:35:24.445Z,36.27
2019-03-30T06:38:20.721Z,33.50
2019-03-30T06:41:18.213Z,32.07
2019-03-30T06:44:15.290Z,33.60
2019-03-30T06:47:12.354Z,32.40
2019-03-30T06:50:09.507Z,36.53
2019-03-30T06:53:05.470Z,37.30
2019-03-30T06:56:02.646Z,40.10
2019-03-30T06:58:59.308Z,41.98
2019-03-30T07:01:56.414Z,35.30
2019-03-30T07:04:52.572Z,38.20
2019-03-30T07:07:51.880Z,40.20
2019-03-30T07:10:47.915Z,36.20
2019-03-30T07:13:45.276Z,30.27
2019-03-30T07:16:42.504Z,33.33
2019-03-30T07:19:39.896Z,37.00
2019-03-30T07:22:37.009Z,37.33
2019-03-30T07:25:32.417Z,38.63
2019-03-30T07:28:29.983Z,38.10
2019-03-30T07:31:26.134Z,34.70
2019-03-30T07:34:23.258Z,36.70
2019-03-30T07:37:21.691Z,40.23
2019-03-30T07:40:17.921Z,40.73
2019-03-30T07:43:16.268Z,35.40
2019-03-30T07:46:13.366Z,34.87
2019-03-30T07:49:10.510Z,38.23
2019-03-30T07:52:05.718Z,38.90
2019-03-30T07:55:03.078Z,38.83
2019-03-30T07:57:59.940Z,38.50
2019-03-30T08:00:56.765Z,39.03
2019-03-30T08:03:54.822Z,40.93
2019-03-30T08:06:52.327Z,45.00
2019-03-30T08:09:50.531Z,43.30
2019-03-30T08:12:46.845Z,43.50
2019-03-30T08:15:44.111Z,47.30
2019-03-30T08:18:41.363Z,48.98
2019-03-30T08:21:38.934Z,46.10
2019-03-30T08:24:34.820Z,53.20
2019-03-30T08:27:32.599Z,50.73
2019-03-30T08:30:30.124Z,55.23
2019-03-30T08:33:26.418Z,53.73
2019-03-30T08:36:23.567Z,51.93
2019-03-30T08:39:19.912Z,55.50
2019-03-30T08:42:17.455Z,53.10
2019-03-30T08:45:14.679Z,50.30
2019-03-30T08:48:13.677Z,53.85
2019-03-30T08:51:13.653Z,57.50
2019-03-30T08:54:19.335Z,58.27
2019-03-30T08:57:17.698Z,60.47
2019-03-30T09:00:13.957Z,54.53
2019-03-30T09:03:11.415Z,58.87
2019-03-30T09:06:08.904Z,54.60
2019-03-30T09:09:07.085Z,59.10
2019-03-30T09:12:03.697Z,56.37
2019-03-30T09:15:02.385Z,63.87
2019-03-30T09:18:00.130Z,59.43
2019-03-30T09:20:57.423Z,66.33
2019-03-30T09:24:08.427Z,65.67
2019-03-30T09:26:51.007Z,67.30
2019-03-30T09:29:48.403Z,66.97
2019-03-30T09:32:45.321Z,65.20
2019-03-30T09:35:42.141Z,69.80
2019-03-30T09:38:39.787Z,67.50
2019-03-30T09:41:35.854Z,70.50
2019-03-30T09:44:33.117Z,66.93
2019-03-30T09:47:31.601Z,64.50
2019-03-30T09:50:28.841Z,70.93
2019-03-30T09:53:25.492Z,68.93
2019-03-30T09:56:24.110Z,69.17
2019-03-30T09:59:21.447Z,70.70
2019-03-30T10:02:18.755Z,68.37
2019-03-30T10:05:14.405Z,67.95
2019-03-30T10:08:12.679Z,62.50
2019-03-30T10:11:12.659Z,70.60
2019-03-30T10:14:11.069Z,65.70
2019-03-30T10:17:07.743Z,62.70
2019-03-30T10:20:06.109Z,63.87
2019-03-30T10:23:03.747Z,66.90
2019-03-30T10:26:03.392Z,66.97
2019-03-30T10:29:01.772Z,67.50
2019-03-30T10:31:59.891Z,65.47
2019-03-30T10:34:58.724Z,65.33
2019-03-30T10:37:54.838Z,71.50
2019-03-30T10:40:53.382Z,65.90
2019-03-30T10:43:49.472Z,66.62
2019-03-30T10:46:47.072Z,68.40
2019-03-30T10:49:49.664Z,67.60
2019-03-30T10:52:49.244Z,66.27
2019-03-30T10:55:47.005Z,65.87
2019-03-30T10:58:45.093Z,65.23
2019-03-30T11:01:42.122Z,66.10
2019-03-30T11:04:40.452Z,66.17
2019-03-30T11:07:38.307Z,69.27
2019-03-30T11:10:37.284Z,67.67
2019-03-30T11:13:34.724Z,68.33
2019-03-30T11:16:31.845Z,66.50
2019-03-30T11:19:30.938Z,67.40
2019-03-30T11:22:27.832Z,68.03
2019-03-30T11:25:26.655Z,67.80
2019-03-30T11:28:23.659Z,66.90
2019-03-30T11:31:21.630Z,67.70
2019-03-30T11:34:19.606Z,65.87
2019-03-30T11:37:16.399Z,71.73
2019-03-30T11:40:14.943Z,69.70
2019-03-30T11:43:12.032Z,70.43
2019-03-30T11:46:09.237Z,71.20
2019-03-30T11:49:06.953Z,67.43
2019-03-30T11:52:05.508Z,68.83
2019-03-30T11:55:02.245Z,72.37
2019-03-30T11:58:00.113Z,66.87
2019-03-30T12:00:57.956Z,71.50
2019-03-30T12:03:55.855Z,68.43
2019-03-30T12:06:54.808Z,67.30
2019-03-30T12:09:51.367Z,70.97
2019-03-30T12:12:49.658Z,72.10
2019-03-30T12:15:46.699Z,69.00
2019-03-30T12:18:44.603Z,67.67
2019-03-30T12:21:42.138Z,68.47
2019-03-30T12:24:41.075Z,68.27
2019-03-30T12:27:38.204Z,70.03
2019-03-30T12:30:37.021Z,73.23
2019-03-30T12:33:35.166Z,67.47
2019-03-30T12:36:33.033Z,69.67
2019-03-30T12:39:30.187Z,69.03
2019-03-30T12:42:28.455Z,67.80
2019-03-30T12:45:35.267Z,72.53
2019-03-30T12:48:30.050Z,72.53
2019-03-30T12:51:28.816Z,72.83
2019-03-30T12:54:27.947Z,70.10
2019-03-30T12:57:28.510Z,70.53
2019-03-30T13:00:26.145Z,73.83
2019-03-30T13:03:27.528Z,71.37
2019-03-30T13:06:26.216Z,70.43
2019-03-30T13:09:24.152Z,74.07
2019-03-30T13:12:21.835Z,73.90
2019-03-30T13:15:19.715Z,72.58
2019-03-30T13:18:29.732Z,71.40
2019-03-30T13:21:27.795Z,72.47
2019-03-30T13:24:26.748Z,71.33
2019-03-30T13:27:23.883Z,70.97
2019-03-30T13:30:21.032Z,69.37
2019-03-30T13:33:17.250Z,73.20
2019-03-30T13:36:16.116Z,77.87
2019-03-30T13:39:12.571Z,74.07
2019-03-30T13:42:11.169Z,78.20
2019-03-30T13:45:09.671Z,77.63
2019-03-30T13:48:06.717Z,76.50
2019-03-30T13:51:04.840Z,76.97
2019-03-30T13:54:03.059Z,79.97
2019-03-30T13:57:01.061Z,81.97
2019-03-30T13:59:58.875Z,77.23
2019-03-30T14:02:56.949Z,88.73
2019-03-30T14:05:54.365Z,81.70
2019-03-30T14:08:52.137Z,82.03
2019-03-30T14:11:52.333Z,79.27
2019-03-30T14:14:51.645Z,78.17
2019-03-30T14:17:49.821Z,81.70
2019-03-30T14:20:47.781Z,79.10
2019-03-30T14:23:46.051Z,80.70
2019-03-30T14:26:44.271Z,83.63
2019-03-30T14:29:41.099Z,83.40
2019-03-30T14:32:40.250Z,81.27
2019-03-30T14:35:37.238Z,82.97
2019-03-30T14:38:35.142Z,85.70
2019-03-30T14:41:33.285Z,81.87
2019-03-30T14:44:30.500Z,82.60
2019-03-30T14:47:34.168Z,82.17
2019-03-30T14:50:33.039Z,81.80
2019-03-30T14:53:33.478Z,84.87
2019-03-30T14:56:45.472Z,84.47
2019-03-30T14:59:34.187Z,83.45
2019-03-30T15:02:32.146Z,82.67
2019-03-30T15:05:29.350Z,83.97
2019-03-30T15:08:30.285Z,84.30
2019-03-30T15:11:27.697Z,89.43
2019-03-30T15:14:27.063Z,87.67
2019-03-30T15:17:24.991Z,86.60
2019-03-30T15:20:22.101Z,88.70
2019-03-30T15:23:21.247Z,87.47
2019-03-30T15:26:18.032Z,85.57
2019-03-30T15:29:15.996Z,85.92
2019-03-30T15:32:12.944Z,90.57
2019-03-30T15:35:10.932Z,88.55
2019-03-30T15:38:09.099Z,89.72
2019-03-30T15:41:07.249Z,87.53
2019-03-30T15:44:06.522Z,92.33
2019-03-30T15:47:05.159Z,85.10
2019-03-30T15:50:03.409Z,86.33
2019-03-30T15:53:01.185Z,83.40
2019-03-30T15:55:58.341Z,87.20
2019-03-30T15:59:01.801Z,83.17
2019-03-30T16:01:59.767Z,82.60
2019-03-30T16:05:02.494Z,81.00
2019-03-30T16:08:00.397Z,82.00
2019-03-30T16:10:58.456Z,79.80
2019-03-30T16:13:57.140Z,80.30
2019-03-30T16:16:54.864Z,83.57
2019-03-30T16:19:51.763Z,82.00
2019-03-30T16:22:50.783Z,83.20
2019-03-30T16:25:48.748Z,82.73
2019-03-30T16:28:46.779Z,76.03
2019-03-30T16:31:44.176Z,81.10
2019-03-30T16:37:05.982Z,78.17
2019-03-30T16:39:36.582Z,74.70
2019-03-30T16:42:07.771Z,76.12
2019-03-30T16:44:38.427Z,75.07
2019-03-30T16:47:09.030Z,70.47
2019-03-30T16:49:39.678Z,70.53
2019-03-30T16:52:10.272Z,72.93
2019-03-30T16:54:40.898Z,73.93
2019-03-30T16:57:11.524Z,68.03
2019-03-30T16:59:42.281Z,71.47
2019-03-30T17:02:12.854Z,73.13
2019-03-30T17:04:43.434Z,75.53
2019-03-30T17:07:13.985Z,72.77
2019-03-30T17:09:44.640Z,67.80
2019-03-30T17:12:15.253Z,68.33
2019-03-30T17:14:45.914Z,67.20
2019-03-30T17:17:16.601Z,69.00
2019-03-30T17:19:47.252Z,65.07
2019-03-30T17:22:17.854Z,63.25
2019-03-30T17:24:48.508Z,65.32
2019-03-30T17:27:19.129Z,67.23
2019-03-30T17:29:49.706Z,63.20
2019-03-30T17:32:20.358Z,65.40
2019-03-30T17:34:51.006Z,65.53
2019-03-30T17:37:21.641Z,67.33
2019-03-30T17:39:52.298Z,65.47
2019-03-30T17:42:22.936Z,60.20
2019-03-30T17:44:53.594Z,64.40
2019-03-30T17:47:24.188Z,65.70
2019-03-30T17:49:54.831Z,60.85
2019-03-30T17:52:25.505Z,61.30
2019-03-30T17:54:56.884Z,63.73
2019-03-30T17:57:27.520Z,63.52
2019-03-30T17:59:58.205Z,62.10
2019-03-30T18:02:29.027Z,60.17
2019-03-30T18:04:59.628Z,59.67
2019-03-30T18:07:30.224Z,63.73
2019-03-30T18:10:03.517Z,58.57
2019-03-30T18:12:33.150Z,59.67
2019-03-30T18:15:03.774Z,57.80
2019-03-30T18:17:34.369Z,62.03
2019-03-30T18:20:05.102Z,59.60
2019-03-30T18:22:35.846Z,67.30
2019-03-30T18:25:06.695Z,70.40
2019-03-30T18:27:37.323Z,63.90
2019-03-30T18:30:08.793Z,61.88
2019-03-30T18:32:40.041Z,59.20
2019-03-30T18:35:10.797Z,60.07
2019-03-30T18:37:41.572Z,65.90
2019-03-30T18:40:16.913Z,61.73
2019-03-30T18:42:47.580Z,57.90
2019-03-30T18:45:27.229Z,53.40
2019-03-30T18:48:13.707Z,57.20
2019-03-30T18:50:44.916Z,57.33
2019-03-30T18:53:16.695Z,57.33
2019-03-30T18:55:47.459Z,63.63
2019-03-30T18:58:18.072Z,52.00
2019-03-30T19:00:48.654Z,53.98
2019-03-30T19:03:20.257Z,52.00
2019-03-30T19:05:51.184Z,51.20
2019-03-30T19:08:21.819Z,53.90
2019-03-30T19:10:52.550Z,48.80
2019-03-30T19:13:23.168Z,52.10
2019-03-30T19:15:53.793Z,52.65
2019-03-30T19:18:24.444Z,51.63
2019-03-30T19:20:55.064Z,50.85
2019-03-30T19:23:25.801Z,56.73
2019-03-30T19:25:56.493Z,52.43
2019-03-30T19:28:27.317Z,52.50
2019-03-30T19:30:57.942Z,51.93
2019-03-30T19:33:28.636Z,49.93
2019-03-30T19:36:00.991Z,54.10
2019-03-30T19:38:31.655Z,50.30
2019-03-30T19:41:02.277Z,48.50
2019-03-30T19:43:32.897Z,48.00
2019-03-30T19:46:03.587Z,52.33
2019-03-30T19:48:36.934Z,47.77
2019-03-30T19:51:06.990Z,48.50
2019-03-30T19:53:37.740Z,48.30
2019-03-30T19:56:08.356Z,50.27
2019-03-30T19:58:39.034Z,50.17
2019-03-30T20:01:09.667Z,53.63
2019-03-30T20:03:41.311Z,52.30
2019-03-30T20:06:12.037Z,50.03
2019-03-30T20:08:42.636Z,50.47
2019-03-30T20:11:13.305Z,53.00
2019-03-30T20:13:43.962Z,53.83
2019-03-30T20:16:14.661Z,54.97
2019-03-30T20:18:45.317Z,48.80
2019-03-30T20:21:16.022Z,52.43
2019-03-30T20:23:46.657Z,49.70
2019-03-30T20:26:17.379Z,48.60
2019-03-30T20:28:48.069Z,53.05
2019-03-30T20:31:18.680Z,48.15
2019-03-30T20:33:49.273Z,47.03
2019-03-30T20:36:20.056Z,44.30
2019-03-30T20:38:50.685Z,50.57
2019-03-30T20:41:21.389Z,47.53
2019-03-30T20:43:52.097Z,45.30
2019-03-30T20:46:22.734Z,43.48
2019-03-30T20:48:54.581Z,53.43
2019-03-30T20:51:25.214Z,53.53
2019-03-30T20:53:55.827Z,43.17
2019-03-30T20:56:26.531Z,44.50
2019-03-30T20:58:57.256Z,55.07
2019-03-30T21:01:27.843Z,63.70
2019-03-30T21:03:58.443Z,52.50
2019-03-30T21:06:29.037Z,50.83
2019-03-30T21:08:59.752Z,49.00
2019-03-30T21:11:30.385Z,51.50
2019-03-30T21:14:01.029Z,51.97
2019-03-30T21:16:31.687Z,44.90
2019-03-30T21:19:02.325Z,49.70
2019-03-30T21:21:33.103Z,47.15
2019-03-30T21:24:03.770Z,42.20
2019-03-30T21:26:34.399Z,43.67
2019-03-30T21:29:05.100Z,39.73
2019-03-30T21:31:35.675Z,43.90
2019-03-30T21:34:06.359Z,45.05
2019-03-30T21:36:36.994Z,44.10
2019-03-30T21:39:09.196Z,44.77
2019-03-30T21:41:39.780Z,54.60
2019-03-30T21:44:21.359Z,52.27
2019-03-30T21:46:42.752Z,47.27
2019-03-30T21:49:13.358Z,44.37
2019-03-30T21:51:44.016Z,43.87
2019-03-30T21:54:14.563Z,43.93
2019-03-30T21:56:45.219Z,38.30
2019-03-30T21:59:15.828Z,42.53
2019-03-30T22:01:46.571Z,49.00
2019-03-30T22:04:17.188Z,49.90
2019-03-30T22:06:47.818Z,47.57
2019-03-30T22:09:18.559Z,39.70
2019-03-30T22:11:49.187Z,43.50
2019-03-30T22:14:19.849Z,43.63
2019-03-30T22:16:50.526Z,40.53
2019-03-30T22:19:21.123Z,42.50
2019-03-30T22:21:51.840Z,46.50
2019-03-30T22:24:23.253Z,42.00
2019-03-30T22:26:53.907Z,43.90
2019-03-30T22:29:24.546Z,42.83
2019-03-30T22:31:55.246Z,42.70
2019-03-30T22:34:25.844Z,44.03
2019-03-30T22:36:56.449Z,53.43
2019-03-30T22:39:27.058Z,48.33
2019-03-30T22:41:57.679Z,44.17
2019-03-30T22:44:28.316Z,39.63
2019-03-30T22:46:58.972Z,39.48
2019-03-30T22:49:29.643Z,45.63
2019-03-30T22:52:00.281Z,38.73
2019-03-30T22:54:30.856Z,40.23
2019-03-30T22:57:01.447Z,42.70
2019-03-30T22:59:32.012Z,37.48
2019-03-30T23:02:02.660Z,41.73
2019-03-30T23:04:33.262Z,37.95
2019-03-30T23:07:03.920Z,30.93
2019-03-30T23:09:34.528Z,30.03
2019-03-30T23:12:05.172Z,33.80
2019-03-30T23:14:35.781Z,31.43
2019-03-30T23:17:06.426Z,30.80
2019-03-30T23:19:37.077Z,31.13
2019-03-30T23:22:07.743Z,31.15
2019-03-30T23:24:38.377Z,27.37
2019-03-30T23:27:08.977Z,26.20
2019-03-30T23:29:39.662Z,30.60
2019-03-30T23:32:10.267Z,28.50
2019-03-30T23:34:40.928Z,25.55
2019-03-30T23:37:11.507Z,28.00
2019-03-30T23:39:42.108Z,26.80
2019-03-30T23:42:12.692Z,32.73
2019-03-30T23:44:43.269Z,26.37
2019-03-30T23:47:13.848Z,27.40
2019-03-30T23:49:44.451Z,29.37
2019-03-30T23:52:15.344Z,27.20
2019-03-30T23:54:45.989Z,27.97
2019-03-30T23:57:18.477Z,33.50
2019-03-30T23:59:49.095Z,27.10
